sensor_id;sensor_type;location;lat;lon;timestamp;pressure;altitude;pressure_sealevel;temperature;humidity
44255;BME280;29933;47.226;15.734;2022-07-21T00:00:25;96578.44;;;18.58;70.89
44255;BME280;29933;47.226;15.734;2022-07-21T00:02:51;96568.84;;;18.50;71.49
44255;BME280;29933;47.226;15.734;2022-07-21T00:05:18;96581.56;;;18.43;70.94
44255;BME280;29933;47.226;15.734;2022-07-21T00:07:44;96579.34;;;18.38;71.36
44255;BME280;29933;47.226;15.734;2022-07-21T00:10:13;96581.78;;;18.36;71.45
44255;BME280;29933;47.226;15.734;2022-07-21T00:12:40;96583.41;;;18.34;72.32
44255;BME280;29933;47.226;15.734;2022-07-21T00:15:08;96578.88;;;18.27;71.88
44255;BME280;29933;47.226;15.734;2022-07-21T00:17:35;96571.50;;;18.24;72.12
44255;BME280;29933;47.226;15.734;2022-07-21T00:20:02;96573.53;;;18.20;72.17
44255;BME280;29933;47.226;15.734;2022-07-21T00:22:28;96579.91;;;18.17;73.78
44255;BME280;29933;47.226;15.734;2022-07-21T00:24:54;96575.97;;;18.18;72.06
44255;BME280;29933;47.226;15.734;2022-07-21T00:27:20;96575.88;;;18.21;72.17
44255;BME280;29933;47.226;15.734;2022-07-21T00:29:46;96571.94;;;18.22;71.57
44255;BME280;29933;47.226;15.734;2022-07-21T00:32:12;96573.13;;;18.21;71.65
44255;BME280;29933;47.226;15.734;2022-07-21T00:34:38;96575.00;;;18.24;70.65
44255;BME280;29933;47.226;15.734;2022-07-21T00:37:04;96574.56;;;18.26;70.58
44255;BME280;29933;47.226;15.734;2022-07-21T00:39:29;96572.91;;;18.28;70.44
44255;BME280;29933;47.226;15.734;2022-07-21T00:41:55;96574.06;;;18.31;70.26
44255;BME280;29933;47.226;15.734;2022-07-21T00:44:24;96575.66;;;18.28;70.43
44255;BME280;29933;47.226;15.734;2022-07-21T00:46:51;96575.78;;;18.25;70.34
44255;BME280;29933;47.226;15.734;2022-07-21T00:49:18;96583.25;;;18.24;71.04
44255;BME280;29933;47.226;15.734;2022-07-21T00:51:46;96583.69;;;18.23;70.45
44255;BME280;29933;47.226;15.734;2022-07-21T00:54:14;96570.72;;;18.23;70.89
44255;BME280;29933;47.226;15.734;2022-07-21T00:56:40;96568.03;;;18.20;70.83
44255;BME280;29933;47.226;15.734;2022-07-21T00:59:06;96563.00;;;18.18;70.25
44255;BME280;29933;47.226;15.734;2022-07-21T01:01:32;96557.50;;;18.18;71.15
44255;BME280;29933;47.226;15.734;2022-07-21T01:03:59;96567.38;;;18.16;70.14
44255;BME280;29933;47.226;15.734;2022-07-21T01:06:25;96560.69;;;18.17;71.46
44255;BME280;29933;47.226;15.734;2022-07-21T01:08:52;96563.06;;;18.15;71.28
44255;BME280;29933;47.226;15.734;2022-07-21T01:11:20;96559.66;;;18.10;71.33
44255;BME280;29933;47.226;15.734;2022-07-21T01:13:48;96558.19;;;18.06;71.51
44255;BME280;29933;47.226;15.734;2022-07-21T01:16:14;96565.00;;;18.01;71.22
44255;BME280;29933;47.226;15.734;2022-07-21T01:18:40;96563.47;;;18.00;71.04
44255;BME280;29933;47.226;15.734;2022-07-21T01:21:33;96564.22;;;18.01;71.71
44255;BME280;29933;47.226;15.734;2022-07-21T01:24:01;96564.66;;;17.99;71.67
44255;BME280;29933;47.226;15.734;2022-07-21T01:26:29;96565.00;;;18.01;70.43
44255;BME280;29933;47.226;15.734;2022-07-21T01:28:56;96563.03;;;18.02;71.28
44255;BME280;29933;47.226;15.734;2022-07-21T01:31:22;96562.44;;;17.94;71.68
44255;BME280;29933;47.226;15.734;2022-07-21T01:33:49;96563.59;;;17.93;71.36
44255;BME280;29933;47.226;15.734;2022-07-21T01:36:16;96564.81;;;17.92;71.20
44255;BME280;29933;47.226;15.734;2022-07-21T01:38:42;96556.13;;;17.93;70.69
44255;BME280;29933;47.226;15.734;2022-07-21T01:41:26;96564.38;;;17.93;71.29
44255;BME280;29933;47.226;15.734;2022-07-21T01:44:07;96560.19;;;17.89;71.43
44255;BME280;29933;47.226;15.734;2022-07-21T01:46:38;96560.19;;;17.89;70.75
44255;BME280;29933;47.226;15.734;2022-07-21T01:49:06;96555.88;;;17.88;71.89
44255;BME280;29933;47.226;15.734;2022-07-21T01:51:33;96555.22;;;17.84;72.01
44255;BME280;29933;47.226;15.734;2022-07-21T01:53:59;96555.69;;;17.78;72.13
44255;BME280;29933;47.226;15.734;2022-07-21T01:56:26;96548.25;;;17.79;71.42
44255;BME280;29933;47.226;15.734;2022-07-21T01:58:55;96547.81;;;17.80;71.05
44255;BME280;29933;47.226;15.734;2022-07-21T02:01:23;96549.72;;;17.84;70.20
44255;BME280;29933;47.226;15.734;2022-07-21T02:03:53;96548.84;;;17.87;70.74
44255;BME280;29933;47.226;15.734;2022-07-21T02:06:20;96544.22;;;17.84;71.95
44255;BME280;29933;47.226;15.734;2022-07-21T02:08:46;96541.97;;;17.78;71.52
44255;BME280;29933;47.226;15.734;2022-07-21T02:11:13;96551.09;;;17.75;71.02
44255;BME280;29933;47.226;15.734;2022-07-21T02:13:41;96551.16;;;17.72;71.32
44255;BME280;29933;47.226;15.734;2022-07-21T02:16:11;96550.06;;;17.69;71.61
44255;BME280;29933;47.226;15.734;2022-07-21T02:18:37;96538.31;;;17.69;71.98
44255;BME280;29933;47.226;15.734;2022-07-21T02:21:05;96546.88;;;17.71;70.68
44255;BME280;29933;47.226;15.734;2022-07-21T02:23:32;96540.69;;;17.67;71.69
44255;BME280;29933;47.226;15.734;2022-07-21T02:25:58;96536.56;;;17.58;71.86
44255;BME280;29933;47.226;15.734;2022-07-21T02:28:25;96542.16;;;17.55;72.18
44255;BME280;29933;47.226;15.734;2022-07-21T02:30:52;96532.78;;;17.52;72.32
44255;BME280;29933;47.226;15.734;2022-07-21T02:33:19;96529.38;;;17.48;72.15
44255;BME280;29933;47.226;15.734;2022-07-21T02:35:45;96528.59;;;17.47;72.14
44255;BME280;29933;47.226;15.734;2022-07-21T02:38:12;96529.03;;;17.46;71.79
44255;BME280;29933;47.226;15.734;2022-07-21T02:40:38;96522.84;;;17.42;73.14
44255;BME280;29933;47.226;15.734;2022-07-21T02:43:05;96532.53;;;17.30;73.22
44255;BME280;29933;47.226;15.734;2022-07-21T02:45:35;96528.75;;;17.24;74.16
44255;BME280;29933;47.226;15.734;2022-07-21T02:48:08;96533.28;;;17.14;74.55
44255;BME280;29933;47.226;15.734;2022-07-21T02:50:36;96532.44;;;17.17;74.44
44255;BME280;29933;47.226;15.734;2022-07-21T02:53:09;96537.47;;;17.19;74.59
44255;BME280;29933;47.226;15.734;2022-07-21T02:55:36;96535.09;;;17.21;73.51
44255;BME280;29933;47.226;15.734;2022-07-21T03:00:54;96544.38;;;17.27;73.19
44255;BME280;29933;47.226;15.734;2022-07-21T03:03:23;96547.47;;;17.29;72.86
44255;BME280;29933;47.226;15.734;2022-07-21T03:05:51;96542.41;;;17.27;73.08
44255;BME280;29933;47.226;15.734;2022-07-21T03:08:17;96544.00;;;17.25;72.93
44255;BME280;29933;47.226;15.734;2022-07-21T03:10:44;96543.25;;;17.24;73.44
44255;BME280;29933;47.226;15.734;2022-07-21T03:13:10;96547.63;;;17.22;73.30
44255;BME280;29933;47.226;15.734;2022-07-21T03:15:37;96549.16;;;17.23;73.16
44255;BME280;29933;47.226;15.734;2022-07-21T03:18:04;96544.53;;;17.20;73.96
44255;BME280;29933;47.226;15.734;2022-07-21T03:20:33;96546.94;;;17.18;73.74
44255;BME280;29933;47.226;15.734;2022-07-21T03:23:00;96537.47;;;17.19;73.26
44255;BME280;29933;47.226;15.734;2022-07-21T03:25:27;96544.13;;;17.21;73.36
44255;BME280;29933;47.226;15.734;2022-07-21T03:27:53;96540.50;;;17.24;72.66
44255;BME280;29933;47.226;15.734;2022-07-21T03:30:20;96541.97;;;17.29;72.18
44255;BME280;29933;47.226;15.734;2022-07-21T03:32:48;96539.16;;;17.32;72.50
44255;BME280;29933;47.226;15.734;2022-07-21T03:35:15;96551.66;;;17.33;72.72
44255;BME280;29933;47.226;15.734;2022-07-21T03:37:55;96545.75;;;17.35;72.53
44255;BME280;29933;47.226;15.734;2022-07-21T03:40:23;96545.47;;;17.29;72.10
44255;BME280;29933;47.226;15.734;2022-07-21T03:42:57;96553.28;;;17.31;73.21
44255;BME280;29933;47.226;15.734;2022-07-21T03:45:25;96549.78;;;17.30;73.07
44255;BME280;29933;47.226;15.734;2022-07-21T03:47:52;96548.66;;;17.28;72.59
44255;BME280;29933;47.226;15.734;2022-07-21T03:50:18;96555.69;;;17.29;72.76
44255;BME280;29933;47.226;15.734;2022-07-21T03:52:47;96561.94;;;17.29;72.60
44255;BME280;29933;47.226;15.734;2022-07-21T03:55:14;96558.78;;;17.31;72.26
44255;BME280;29933;47.226;15.734;2022-07-21T03:57:49;96560.00;;;17.30;73.71
44255;BME280;29933;47.226;15.734;2022-07-21T04:00:24;96562.38;;;17.28;72.77
44255;BME280;29933;47.226;15.734;2022-07-21T04:02:50;96561.69;;;17.24;73.41
44255;BME280;29933;47.226;15.734;2022-07-21T04:05:19;96561.69;;;17.24;73.45
44255;BME280;29933;47.226;15.734;2022-07-21T04:07:49;96555.34;;;17.27;72.56
44255;BME280;29933;47.226;15.734;2022-07-21T04:10:18;96557.25;;;17.30;72.85
44255;BME280;29933;47.226;15.734;2022-07-21T04:12:45;96559.13;;;17.33;71.88
44255;BME280;29933;47.226;15.734;2022-07-21T04:15:12;96553.47;;;17.40;72.07
44255;BME280;29933;47.226;15.734;2022-07-21T04:17:39;96553.03;;;17.42;71.86
44255;BME280;29933;47.226;15.734;2022-07-21T04:20:06;96554.59;;;17.43;71.32
44255;BME280;29933;47.226;15.734;2022-07-21T04:22:32;96558.63;;;17.55;70.82
44255;BME280;29933;47.226;15.734;2022-07-21T04:24:59;96561.63;;;17.60;70.70
44255;BME280;29933;47.226;15.734;2022-07-21T04:27:27;96560.44;;;17.61;70.69
44255;BME280;29933;47.226;15.734;2022-07-21T04:29:53;96565.06;;;17.64;70.59
44255;BME280;29933;47.226;15.734;2022-07-21T04:32:19;96574.94;;;17.62;70.66
44255;BME280;29933;47.226;15.734;2022-07-21T04:34:45;96574.63;;;17.60;71.97
44255;BME280;29933;47.226;15.734;2022-07-21T04:37:14;96577.44;;;17.56;71.88
44255;BME280;29933;47.226;15.734;2022-07-21T04:39:43;96581.69;;;17.57;71.80
44255;BME280;29933;47.226;15.734;2022-07-21T04:42:09;96575.00;;;17.58;71.67
44255;BME280;29933;47.226;15.734;2022-07-21T04:44:35;96582.84;;;17.60;74.03
44255;BME280;29933;47.226;15.734;2022-07-21T04:47:01;96578.88;;;17.61;72.03
44255;BME280;29933;47.226;15.734;2022-07-21T04:49:27;96577.16;;;17.67;71.02
44255;BME280;29933;47.226;15.734;2022-07-21T04:51:53;96574.69;;;17.73;71.39
44255;BME280;29933;47.226;15.734;2022-07-21T04:54:18;96567.47;;;17.79;71.53
44255;BME280;29933;47.226;15.734;2022-07-21T04:56:45;96572.53;;;17.80;73.25
44255;BME280;29933;47.226;15.734;2022-07-21T04:59:11;96564.72;;;17.79;73.60
44255;BME280;29933;47.226;15.734;2022-07-21T05:01:38;96572.97;;;17.79;72.84
44255;BME280;29933;47.226;15.734;2022-07-21T05:04:05;96576.03;;;17.81;72.52
44255;BME280;29933;47.226;15.734;2022-07-21T05:06:32;96572.00;;;17.86;72.63
44255;BME280;29933;47.226;15.734;2022-07-21T05:08:58;96570.28;;;17.92;71.70
44255;BME280;29933;47.226;15.734;2022-07-21T05:11:25;96578.75;;;18.01;72.12
44255;BME280;29933;47.226;15.734;2022-07-21T05:13:51;96578.97;;;18.07;71.34
44255;BME280;29933;47.226;15.734;2022-07-21T05:16:17;96575.28;;;18.13;72.08
44255;BME280;29933;47.226;15.734;2022-07-21T05:18:43;96576.72;;;18.18;70.78
44255;BME280;29933;47.226;15.734;2022-07-21T05:21:09;96568.75;;;18.24;72.13
44255;BME280;29933;47.226;15.734;2022-07-21T05:23:35;96574.56;;;18.26;70.63
44255;BME280;29933;47.226;15.734;2022-07-21T05:26:01;96581.44;;;18.34;69.57
44255;BME280;29933;47.226;15.734;2022-07-21T05:28:28;96586.31;;;18.43;69.85
44255;BME280;29933;47.226;15.734;2022-07-21T05:30:54;96581.06;;;18.49;69.51
44255;BME280;29933;47.226;15.734;2022-07-21T05:33:20;96587.22;;;18.53;70.61
44255;BME280;29933;47.226;15.734;2022-07-21T05:35:46;96593.06;;;18.55;70.17
44255;BME280;29933;47.226;15.734;2022-07-21T05:38:12;96593.75;;;18.59;70.43
44255;BME280;29933;47.226;15.734;2022-07-21T05:40:38;96591.81;;;18.72;69.59
44255;BME280;29933;47.226;15.734;2022-07-21T05:43:04;96589.75;;;18.89;68.31
44255;BME280;29933;47.226;15.734;2022-07-21T05:45:30;96585.31;;;19.08;67.88
44255;BME280;29933;47.226;15.734;2022-07-21T05:47:56;96587.44;;;19.30;69.42
44255;BME280;29933;47.226;15.734;2022-07-21T05:50:22;96587.88;;;19.41;69.83
44255;BME280;29933;47.226;15.734;2022-07-21T05:52:47;96584.69;;;19.56;68.45
44255;BME280;29933;47.226;15.734;2022-07-21T05:55:13;96579.63;;;19.67;67.83
44255;BME280;29933;47.226;15.734;2022-07-21T05:57:40;96587.84;;;19.80;67.75
44255;BME280;29933;47.226;15.734;2022-07-21T06:00:07;96583.56;;;19.92;68.11
44255;BME280;29933;47.226;15.734;2022-07-21T06:02:33;96585.50;;;20.04;67.31
44255;BME280;29933;47.226;15.734;2022-07-21T06:04:59;96586.59;;;20.20;70.34
44255;BME280;29933;47.226;15.734;2022-07-21T06:07:26;96580.84;;;20.27;70.30
44255;BME280;29933;47.226;15.734;2022-07-21T06:09:52;96581.66;;;20.37;67.88
44255;BME280;29933;47.226;15.734;2022-07-21T06:12:18;96579.06;;;20.55;67.29
44255;BME280;29933;47.226;15.734;2022-07-21T06:14:44;96577.13;;;20.65;64.17
44255;BME280;29933;47.226;15.734;2022-07-21T06:17:10;96581.28;;;20.83;68.90
44255;BME280;29933;47.226;15.734;2022-07-21T06:19:36;96588.38;;;20.93;69.05
44255;BME280;29933;47.226;15.734;2022-07-21T06:22:02;96584.66;;;21.09;68.96
44255;BME280;29933;47.226;15.734;2022-07-21T06:24:28;96582.22;;;21.11;67.53
44255;BME280;29933;47.226;15.734;2022-07-21T06:26:55;96579.06;;;21.22;66.34
44255;BME280;29933;47.226;15.734;2022-07-21T06:29:24;96572.50;;;21.38;66.18
44255;BME280;29933;47.226;15.734;2022-07-21T06:31:50;96577.94;;;21.51;68.98
44255;BME280;29933;47.226;15.734;2022-07-21T06:34:16;96578.00;;;21.60;68.55
44255;BME280;29933;47.226;15.734;2022-07-21T06:36:42;96578.03;;;21.70;66.88
44255;BME280;29933;47.226;15.734;2022-07-21T06:39:08;96577.13;;;21.82;67.40
44255;BME280;29933;47.226;15.734;2022-07-21T06:41:38;96575.19;;;22.01;70.39
44255;BME280;29933;47.226;15.734;2022-07-21T06:44:04;96582.44;;;22.17;61.57
44255;BME280;29933;47.226;15.734;2022-07-21T06:46:34;96580.00;;;22.38;69.57
44255;BME280;29933;47.226;15.734;2022-07-21T06:49:02;96573.56;;;22.50;71.55
44255;BME280;29933;47.226;15.734;2022-07-21T06:51:29;96568.31;;;22.61;66.06
44255;BME280;29933;47.226;15.734;2022-07-21T06:53:55;96568.91;;;22.84;64.69
44255;BME280;29933;47.226;15.734;2022-07-21T06:56:21;96564.41;;;23.05;60.20
44255;BME280;29933;47.226;15.734;2022-07-21T06:58:47;96564.97;;;23.28;62.20
44255;BME280;29933;47.226;15.734;2022-07-21T07:01:13;96564.16;;;23.46;63.23
44255;BME280;29933;47.226;15.734;2022-07-21T07:03:44;96569.88;;;23.67;63.61
44255;BME280;29933;47.226;15.734;2022-07-21T07:06:11;96573.34;;;23.86;67.56
44255;BME280;29933;47.226;15.734;2022-07-21T07:08:37;96570.38;;;23.99;69.78
44255;BME280;29933;47.226;15.734;2022-07-21T07:11:04;96575.78;;;24.17;66.26
44255;BME280;29933;47.226;15.734;2022-07-21T07:13:30;96565.81;;;24.35;67.91
44255;BME280;29933;47.226;15.734;2022-07-21T07:15:56;96565.06;;;24.49;61.90
44255;BME280;29933;47.226;15.734;2022-07-21T07:18:22;96565.56;;;24.63;60.83
44255;BME280;29933;47.226;15.734;2022-07-21T07:20:50;96560.63;;;24.82;62.63
44255;BME280;29933;47.226;15.734;2022-07-21T07:23:17;96554.44;;;25.02;65.76
44255;BME280;29933;47.226;15.734;2022-07-21T07:25:43;96558.31;;;25.25;66.56
44255;BME280;29933;47.226;15.734;2022-07-21T07:28:09;96561.47;;;25.48;67.55
44255;BME280;29933;47.226;15.734;2022-07-21T07:30:36;96551.66;;;25.67;68.34
44255;BME280;29933;47.226;15.734;2022-07-21T07:33:02;96547.63;;;25.89;59.78
44255;BME280;29933;47.226;15.734;2022-07-21T07:35:29;96550.25;;;26.13;62.98
44255;BME280;29933;47.226;15.734;2022-07-21T07:37:55;96550.25;;;26.34;65.16
44255;BME280;29933;47.226;15.734;2022-07-21T07:40:23;96547.44;;;26.55;64.36
44255;BME280;29933;47.226;15.734;2022-07-21T07:42:50;96544.81;;;26.72;66.05
44255;BME280;29933;47.226;15.734;2022-07-21T07:45:16;96545.44;;;26.81;66.63
44255;BME280;29933;47.226;15.734;2022-07-21T07:47:43;96546.84;;;26.97;65.36
44255;BME280;29933;47.226;15.734;2022-07-21T07:50:13;96537.63;;;27.12;65.66
44255;BME280;29933;47.226;15.734;2022-07-21T07:52:42;96535.59;;;27.44;66.07
44255;BME280;29933;47.226;15.734;2022-07-21T07:55:09;96537.00;;;27.66;52.89
44255;BME280;29933;47.226;15.734;2022-07-21T07:57:38;96536.06;;;27.80;65.05
44255;BME280;29933;47.226;15.734;2022-07-21T08:00:08;96537.50;;;28.14;61.05
44255;BME280;29933;47.226;15.734;2022-07-21T08:02:36;96533.81;;;28.39;65.26
44255;BME280;29933;47.226;15.734;2022-07-21T08:05:05;96530.09;;;28.71;54.96
44255;BME280;29933;47.226;15.734;2022-07-21T08:07:31;96533.16;;;28.90;45.41
44255;BME280;29933;47.226;15.734;2022-07-21T08:09:58;96525.53;;;29.13;40.56
44255;BME280;29933;47.226;15.734;2022-07-21T08:12:24;96532.16;;;29.44;43.76
44255;BME280;29933;47.226;15.734;2022-07-21T08:14:51;96523.72;;;29.61;41.90
44255;BME280;29933;47.226;15.734;2022-07-21T08:17:17;96525.47;;;29.76;40.27
44255;BME280;29933;47.226;15.734;2022-07-21T08:19:43;96525.69;;;30.00;40.85
44255;BME280;29933;47.226;15.734;2022-07-21T08:22:10;96531.72;;;30.16;42.88
44255;BME280;29933;47.226;15.734;2022-07-21T08:24:36;96527.34;;;30.32;41.08
44255;BME280;29933;47.226;15.734;2022-07-21T08:27:05;96520.88;;;30.54;40.98
44255;BME280;29933;47.226;15.734;2022-07-21T08:29:31;96520.22;;;30.73;39.27
44255;BME280;29933;47.226;15.734;2022-07-21T08:31:58;96526.81;;;30.81;37.52
44255;BME280;29933;47.226;15.734;2022-07-21T08:34:25;96522.72;;;30.82;37.28
44255;BME280;29933;47.226;15.734;2022-07-21T08:36:51;96522.44;;;30.85;36.77
44255;BME280;29933;47.226;15.734;2022-07-21T08:39:17;96528.06;;;30.85;36.83
44255;BME280;29933;47.226;15.734;2022-07-21T08:41:43;96537.47;;;30.88;36.21
44255;BME280;29933;47.226;15.734;2022-07-21T08:44:10;96533.88;;;30.88;36.41
44255;BME280;29933;47.226;15.734;2022-07-21T08:46:39;96529.59;;;30.87;37.01
44255;BME280;29933;47.226;15.734;2022-07-21T08:49:08;96534.34;;;30.97;37.20
44255;BME280;29933;47.226;15.734;2022-07-21T08:51:36;96528.88;;;31.16;36.59
44255;BME280;29933;47.226;15.734;2022-07-21T08:54:03;96529.06;;;31.24;34.67
44255;BME280;29933;47.226;15.734;2022-07-21T08:56:29;96530.19;;;31.40;36.01
44255;BME280;29933;47.226;15.734;2022-07-21T08:58:57;96520.34;;;31.53;35.64
44255;BME280;29933;47.226;15.734;2022-07-21T09:01:23;96520.06;;;31.56;35.79
44255;BME280;29933;47.226;15.734;2022-07-21T09:03:54;96514.56;;;31.75;34.30
44255;BME280;29933;47.226;15.734;2022-07-21T09:06:20;96518.81;;;31.82;34.92
44255;BME280;29933;47.226;15.734;2022-07-21T09:08:50;96515.41;;;31.89;35.82
44255;BME280;29933;47.226;15.734;2022-07-21T09:11:20;96514.75;;;32.02;34.07
44255;BME280;29933;47.226;15.734;2022-07-21T09:13:49;96527.66;;;32.11;34.46
44255;BME280;29933;47.226;15.734;2022-07-21T09:16:42;96516.56;;;32.24;34.57
44255;BME280;29933;47.226;15.734;2022-07-21T09:19:18;96522.56;;;32.34;34.02
44255;BME280;29933;47.226;15.734;2022-07-21T09:21:48;96519.16;;;32.41;33.99
44255;BME280;29933;47.226;15.734;2022-07-21T09:24:36;96527.88;;;32.38;34.46
44255;BME280;29933;47.226;15.734;2022-07-21T09:27:13;96526.25;;;32.42;31.54
44255;BME280;29933;47.226;15.734;2022-07-21T09:29:52;96525.66;;;32.50;33.03
44255;BME280;29933;47.226;15.734;2022-07-21T09:32:35;96520.25;;;32.71;33.82
44255;BME280;29933;47.226;15.734;2022-07-21T09:35:10;96524.97;;;32.62;31.13
44255;BME280;29933;47.226;15.734;2022-07-21T09:37:39;96518.06;;;32.63;31.55
44255;BME280;29933;47.226;15.734;2022-07-21T09:40:11;96521.47;;;32.56;30.65
44255;BME280;29933;47.226;15.734;2022-07-21T09:42:40;96518.72;;;32.70;31.65
44255;BME280;29933;47.226;15.734;2022-07-21T09:45:11;96522.25;;;32.76;30.87
44255;BME280;29933;47.226;15.734;2022-07-21T09:47:39;96518.38;;;32.79;31.06
44255;BME280;29933;47.226;15.734;2022-07-21T09:50:09;96507.03;;;32.85;30.26
44255;BME280;29933;47.226;15.734;2022-07-21T09:52:41;96518.69;;;32.75;31.07
44255;BME280;29933;47.226;15.734;2022-07-21T09:55:15;96510.63;;;32.85;31.50
44255;BME280;29933;47.226;15.734;2022-07-21T09:57:43;96507.47;;;32.70;28.71
44255;BME280;29933;47.226;15.734;2022-07-21T10:00:12;96505.06;;;32.80;30.92
44255;BME280;29933;47.226;15.734;2022-07-21T10:02:38;96507.09;;;32.98;30.84
44255;BME280;29933;47.226;15.734;2022-07-21T10:05:06;96510.34;;;33.02;30.32
44255;BME280;29933;47.226;15.734;2022-07-21T10:07:36;96509.34;;;33.00;30.22
44255;BME280;29933;47.226;15.734;2022-07-21T10:10:03;96494.66;;;33.07;30.77
44255;BME280;29933;47.226;15.734;2022-07-21T10:12:30;96507.66;;;33.10;30.10
44255;BME280;29933;47.226;15.734;2022-07-21T10:14:56;96504.94;;;33.04;30.89
44255;BME280;29933;47.226;15.734;2022-07-21T10:17:23;96501.84;;;33.21;30.74
44255;BME280;29933;47.226;15.734;2022-07-21T10:22:59;96497.16;;;33.43;31.19
44255;BME280;29933;47.226;15.734;2022-07-21T10:25:33;96501.47;;;33.57;30.43
44255;BME280;29933;47.226;15.734;2022-07-21T10:30:45;96502.78;;;33.70;30.19
44255;BME280;29933;47.226;15.734;2022-07-21T10:33:12;96493.81;;;33.71;30.05
44255;BME280;29933;47.226;15.734;2022-07-21T10:35:43;96503.44;;;33.63;30.17
44255;BME280;29933;47.226;15.734;2022-07-21T10:38:29;96498.00;;;33.65;29.85
44255;BME280;29933;47.226;15.734;2022-07-21T10:40:57;96491.53;;;33.83;30.29
44255;BME280;29933;47.226;15.734;2022-07-21T10:45:56;96495.25;;;33.92;29.00
44255;BME280;29933;47.226;15.734;2022-07-21T10:51:09;96484.03;;;33.72;28.30
44255;BME280;29933;47.226;15.734;2022-07-21T10:53:35;96481.88;;;33.79;30.40
44255;BME280;29933;47.226;15.734;2022-07-21T10:56:02;96489.16;;;33.87;30.05
44255;BME280;29933;47.226;15.734;2022-07-21T10:58:32;96492.41;;;33.92;30.41
44255;BME280;29933;47.226;15.734;2022-07-21T11:01:35;96480.91;;;34.03;29.64
44255;BME280;29933;47.226;15.734;2022-07-21T11:04:20;96479.78;;;34.19;27.40
44255;BME280;29933;47.226;15.734;2022-07-21T11:06:59;96478.75;;;33.96;27.74
44255;BME280;29933;47.226;15.734;2022-07-21T11:09:25;96478.34;;;33.92;29.06
44255;BME280;29933;47.226;15.734;2022-07-21T11:12:03;96480.91;;;34.03;29.40
44255;BME280;29933;47.226;15.734;2022-07-21T11:14:49;96480.03;;;34.08;29.21
44255;BME280;29933;47.226;15.734;2022-07-21T11:17:43;96480.91;;;34.16;29.77
44255;BME280;29933;47.226;15.734;2022-07-21T11:20:13;96475.69;;;34.20;29.80
44255;BME280;29933;47.226;15.734;2022-07-21T11:22:40;96469.50;;;34.09;29.08
44255;BME280;29933;47.226;15.734;2022-07-21T11:25:06;96480.03;;;34.08;28.49
44255;BME280;29933;47.226;15.734;2022-07-21T11:27:34;96475.38;;;33.97;28.14
44255;BME280;29933;47.226;15.734;2022-07-21T11:30:04;96475.94;;;33.96;28.90
44255;BME280;29933;47.226;15.734;2022-07-21T11:32:30;96476.66;;;34.10;28.93
44255;BME280;29933;47.226;15.734;2022-07-21T11:34:58;96477.44;;;34.10;28.81
44255;BME280;29933;47.226;15.734;2022-07-21T11:37:31;96465.50;;;34.17;28.76
44255;BME280;29933;47.226;15.734;2022-07-21T11:39:59;96461.75;;;34.01;28.11
44255;BME280;29933;47.226;15.734;2022-07-21T11:42:26;96459.47;;;34.00;28.08
44255;BME280;29933;47.226;15.734;2022-07-21T11:44:52;96463.78;;;34.01;28.10
44255;BME280;29933;47.226;15.734;2022-07-21T11:47:18;96464.44;;;34.07;28.39
44255;BME280;29933;47.226;15.734;2022-07-21T11:49:47;96468.53;;;34.19;28.54
44255;BME280;29933;47.226;15.734;2022-07-21T11:52:15;96461.78;;;34.22;28.21
44255;BME280;29933;47.226;15.734;2022-07-21T11:54:45;96460.28;;;34.21;28.78
44255;BME280;29933;47.226;15.734;2022-07-21T11:57:12;96466.19;;;34.10;28.29
44255;BME280;29933;47.226;15.734;2022-07-21T11:59:39;96453.25;;;34.15;28.38
44255;BME280;29933;47.226;15.734;2022-07-21T12:02:14;96450.09;;;34.18;27.93
44255;BME280;29933;47.226;15.734;2022-07-21T12:04:54;96444.97;;;34.30;29.38
44255;BME280;29933;47.226;15.734;2022-07-21T12:07:42;96449.75;;;34.35;28.08
44255;BME280;29933;47.226;15.734;2022-07-21T12:10:12;96445.84;;;34.38;29.23
44255;BME280;29933;47.226;15.734;2022-07-21T12:12:43;96446.13;;;34.48;28.62
44255;BME280;29933;47.226;15.734;2022-07-21T12:17:48;96444.41;;;34.45;28.00
44255;BME280;29933;47.226;15.734;2022-07-21T12:20:27;96444.22;;;34.30;26.87
44255;BME280;29933;47.226;15.734;2022-07-21T12:22:54;96444.88;;;34.22;27.78
44255;BME280;29933;47.226;15.734;2022-07-21T12:25:36;96443.47;;;34.29;27.35
44255;BME280;29933;47.226;15.734;2022-07-21T12:28:06;96440.09;;;34.31;27.51
44255;BME280;29933;47.226;15.734;2022-07-21T12:30:40;96437.94;;;34.37;27.31
44255;BME280;29933;47.226;15.734;2022-07-21T12:33:17;96431.28;;;34.48;28.11
44255;BME280;29933;47.226;15.734;2022-07-21T12:35:45;96423.91;;;34.45;27.25
44255;BME280;29933;47.226;15.734;2022-07-21T12:38:15;96423.44;;;34.54;27.58
44255;BME280;29933;47.226;15.734;2022-07-21T12:40:47;96432.44;;;34.52;28.32
44255;BME280;29933;47.226;15.734;2022-07-21T12:43:21;96431.97;;;34.27;27.31
44255;BME280;29933;47.226;15.734;2022-07-21T12:46:00;96422.41;;;33.96;26.64
44255;BME280;29933;47.226;15.734;2022-07-21T12:48:31;96426.66;;;33.75;27.51
44255;BME280;29933;47.226;15.734;2022-07-21T12:51:07;96417.44;;;33.88;27.88
44255;BME280;29933;47.226;15.734;2022-07-21T12:56:15;96416.63;;;34.15;28.08
44255;BME280;29933;47.226;15.734;2022-07-21T12:58:42;96415.63;;;34.26;27.81
44255;BME280;29933;47.226;15.734;2022-07-21T13:01:08;96404.84;;;34.37;28.88
44255;BME280;29933;47.226;15.734;2022-07-21T13:03:35;96409.13;;;34.52;28.36
44255;BME280;29933;47.226;15.734;2022-07-21T13:06:04;96404.94;;;34.45;27.60
44255;BME280;29933;47.226;15.734;2022-07-21T13:08:31;96399.31;;;34.45;27.60
44255;BME280;29933;47.226;15.734;2022-07-21T13:10:57;96408.22;;;34.36;27.62
44255;BME280;29933;47.226;15.734;2022-07-21T13:13:24;96402.91;;;34.32;27.75
44255;BME280;29933;47.226;15.734;2022-07-21T13:15:51;96407.22;;;34.47;28.63